Station Historical Data
Daily Summary for October 13, 2017 Units:  Both    English   Metric
« Previous Day
Next Day »
Daily Weekly Monthly Yearly Custom
  High: Low: Average:
Temperature: 64.4 °F /  18 °C 59.3 °F /  15.2 °C 61.1 °F /  16.2 °C
Dew Point: 60.7 °F /  15.9 °C 54.9 °F /  12.7 °C 58.1 °F /  14.5 °C
Humidity: 98 % 85 % 90 %
Wind Speed: 5.0 mph /  8 km/h - 0.4 mph /  0.6 km/h
Wind Gust: 11.0 mph /  17.7 km/h - -
Wind:- - ESE
Pressure: 30.40 in /  1029.3 hPa 30.31 in /  1026.3 hPa -
Precipitation: 0.09 in /  2.29 mm    
Historical Graphs
 
 
Tabular Data for October 13, 2017
Time Temperature Dew Point Pressure Wind Wind Speed Wind Gust Humidity Rainfall Rate (Hourly)
00:03 59.4 °F /  15.2 °C 55.2 °F /  12.9 °C 30.36 in /  1028 hPa East 1.0 mph /  1.6 km/h 6.0 mph /  9.7 km/h 86 % 0.00 in /  0 mm
00:08 59.4 °F /  15.2 °C 54.9 °F /  12.7 °C 30.36 in /  1028 hPa Calm   6.0 mph /  9.7 km/h 85 % 0.00 in /  0 mm
00:13 59.4 °F /  15.2 °C 54.9 °F /  12.7 °C 30.36 in /  1028 hPa Calm   6.0 mph /  9.7 km/h 85 % 0.00 in /  0 mm
00:14 59.4 °F /  15.2 °C 54.9 °F /  12.7 °C 30.36 in /  1028 hPa East 1.0 mph /  1.6 km/h 6.0 mph /  9.7 km/h 85 % 0.00 in /  0 mm
00:19 59.4 °F /  15.2 °C 54.9 °F /  12.7 °C 30.36 in /  1028 hPa Calm   7.0 mph /  11.3 km/h 85 % 0.00 in /  0 mm
00:24 59.5 °F /  15.3 °C 55.0 °F /  12.8 °C 30.36 in /  1028 hPa Calm   7.0 mph /  11.3 km/h 85 % 0.00 in /  0 mm
00:29 59.4 °F /  15.2 °C 54.9 °F /  12.7 °C 30.36 in /  1028 hPa Calm   7.0 mph /  11.3 km/h 85 % 0.00 in /  0 mm
00:34 59.4 °F /  15.2 °C 54.9 °F /  12.7 °C 30.36 in /  1028 hPa Calm   7.0 mph /  11.3 km/h 85 % 0.00 in /  0 mm
00:39 59.5 °F /  15.3 °C 55.0 °F /  12.8 °C 30.36 in /  1028 hPa Calm   5.0 mph /  8 km/h 85 % 0.00 in /  0 mm
00:44 59.5 °F /  15.3 °C 55.0 °F /  12.8 °C 30.36 in /  1028 hPa Calm   5.0 mph /  8 km/h 85 % 0.00 in /  0 mm
00:49 59.5 °F /  15.3 °C 55.0 °F /  12.8 °C 30.36 in /  1028 hPa Calm   5.0 mph /  8 km/h 85 % 0.00 in /  0 mm
00:54 59.5 °F /  15.3 °C 55.0 °F /  12.8 °C 30.36 in /  1028 hPa Calm   5.0 mph /  8 km/h 85 % 0.00 in /  0 mm
00:59 59.5 °F /  15.3 °C 55.0 °F /  12.8 °C 30.36 in /  1028 hPa Calm   5.0 mph /  8 km/h 85 % 0.00 in /  0 mm
01:04 59.5 °F /  15.3 °C 55.0 °F /  12.8 °C 30.36 in /  1028 hPa East 2.0 mph /  3.2 km/h 5.0 mph /  8 km/h 85 % 0.00 in /  0 mm
01:09 59.5 °F /  15.3 °C 55.0 °F /  12.8 °C 30.36 in /  1028 hPa Calm   7.0 mph /  11.3 km/h 85 % 0.00 in /  0 mm
01:14 59.5 °F /  15.3 °C 55.3 °F /  12.9 °C 30.36 in /  1028 hPa NNE 1.0 mph /  1.6 km/h 7.0 mph /  11.3 km/h 86 % 0.00 in /  0 mm
01:19 59.4 °F /  15.2 °C 55.2 °F /  12.9 °C 30.36 in /  1028 hPa Calm   7.0 mph /  11.3 km/h 86 % 0.00 in /  0 mm
01:24 59.5 °F /  15.3 °C 55.3 °F /  12.9 °C 30.36 in /  1028 hPa WNW 1.0 mph /  1.6 km/h 7.0 mph /  11.3 km/h 86 % 0.00 in /  0 mm
01:29 59.4 °F /  15.2 °C 55.2 °F /  12.9 °C 30.36 in /  1028 hPa Calm   5.0 mph /  8 km/h 86 % 0.00 in /  0 mm
01:34 59.5 °F /  15.3 °C 55.3 °F /  12.9 °C 30.36 in /  1028 hPa Calm   5.0 mph /  8 km/h 86 % 0.00 in /  0 mm
01:39 59.4 °F /  15.2 °C 55.2 °F /  12.9 °C 30.36 in /  1028 hPa Calm   5.0 mph /  8 km/h 86 % 0.00 in /  0 mm
01:44 59.4 °F /  15.2 °C 55.2 °F /  12.9 °C 30.36 in /  1028 hPa Calm   5.0 mph /  8 km/h 86 % 0.00 in /  0 mm
01:49 59.4 °F /  15.2 °C 55.2 °F /  12.9 °C 30.36 in /  1028 hPa Calm   4.0 mph /  6.4 km/h 86 % 0.00 in /  0 mm
01:54 59.4 °F /  15.2 °C 55.2 °F /  12.9 °C 30.36 in /  1028 hPa Calm   5.0 mph /  8 km/h 86 % 0.00 in /  0 mm
01:59 59.4 °F /  15.2 °C 55.2 °F /  12.9 °C 30.36 in /  1028 hPa Calm   5.0 mph /  8 km/h 86 % 0.00 in /  0 mm
02:04 59.4 °F /  15.2 °C 54.9 °F /  12.7 °C 30.36 in /  1028 hPa Calm   5.0 mph /  8 km/h 85 % 0.00 in /  0 mm
02:09 59.4 °F /  15.2 °C 55.2 °F /  12.9 °C 30.36 in /  1028 hPa Calm   5.0 mph /  8 km/h 86 % 0.00 in /  0 mm
02:14 59.4 °F /  15.2 °C 55.2 °F /  12.9 °C 30.36 in /  1028 hPa Calm   4.0 mph /  6.4 km/h 86 % 0.00 in /  0 mm
02:19 59.4 °F /  15.2 °C 55.2 °F /  12.9 °C 30.36 in /  1028 hPa ENE 3.0 mph /  4.8 km/h 4.0 mph /  6.4 km/h 86 % 0.00 in /  0 mm
02:24 59.4 °F /  15.2 °C 55.2 °F /  12.9 °C 30.36 in /  1028 hPa East 3.0 mph /  4.8 km/h 3.0 mph /  4.8 km/h 86 % 0.00 in /  0 mm
02:29 59.4 °F /  15.2 °C 55.2 °F /  12.9 °C 30.36 in /  1028 hPa Calm   5.0 mph /  8 km/h 86 % 0.00 in /  0 mm
02:30 59.4 °F /  15.2 °C 55.2 °F /  12.9 °C 30.36 in /  1028 hPa ESE 1.0 mph /  1.6 km/h 5.0 mph /  8 km/h 86 % 0.00 in /  0 mm
02:35 59.4 °F /  15.2 °C 55.2 °F /  12.9 °C 30.36 in /  1028 hPa WNW 2.0 mph /  3.2 km/h 5.0 mph /  8 km/h 86 % 0.00 in /  0 mm
02:40 59.4 °F /  15.2 °C 55.2 °F /  12.9 °C 30.36 in /  1028 hPa Calm   5.0 mph /  8 km/h 86 % 0.00 in /  0 mm
02:45 59.4 °F /  15.2 °C 55.2 °F /  12.9 °C 30.36 in /  1028 hPa Calm   6.0 mph /  9.7 km/h 86 % 0.00 in /  0 mm
02:50 59.4 °F /  15.2 °C 55.2 °F /  12.9 °C 30.36 in /  1028 hPa Calm   6.0 mph /  9.7 km/h 86 % 0.00 in /  0 mm
02:55 59.5 °F /  15.3 °C 55.3 °F /  12.9 °C 30.36 in /  1028 hPa Calm   5.0 mph /  8 km/h 86 % 0.00 in /  0 mm
03:00 59.5 °F /  15.3 °C 55.3 °F /  12.9 °C 30.36 in /  1028 hPa Calm   5.0 mph /  8 km/h 86 % 0.00 in /  0 mm
03:05 59.5 °F /  15.3 °C 55.3 °F /  12.9 °C 30.35 in /  1027.7 hPa Calm   5.0 mph /  8 km/h 86 % 0.00 in /  0 mm
03:10 59.4 °F /  15.2 °C 55.2 °F /  12.9 °C 30.35 in /  1027.7 hPa Calm   4.0 mph /  6.4 km/h 86 % 0.00 in /  0 mm
03:15 59.4 °F /  15.2 °C 55.2 °F /  12.9 °C 30.35 in /  1027.7 hPa Calm   4.0 mph /  6.4 km/h 86 % 0.00 in /  0 mm
03:20 59.4 °F /  15.2 °C 55.2 °F /  12.9 °C 30.35 in /  1027.7 hPa Calm   6.0 mph /  9.7 km/h 86 % 0.00 in /  0 mm
03:25 59.4 °F /  15.2 °C 55.2 °F /  12.9 °C 30.35 in /  1027.7 hPa Calm   6.0 mph /  9.7 km/h 86 % 0.00 in /  0 mm
03:30 59.4 °F /  15.2 °C 55.2 °F /  12.9 °C 30.36 in /  1028 hPa Calm   6.0 mph /  9.7 km/h 86 % 0.00 in /  0 mm
03:35 59.4 °F /  15.2 °C 55.2 °F /  12.9 °C 30.36 in /  1028 hPa Calm   6.0 mph /  9.7 km/h 86 % 0.00 in /  0 mm
03:40 59.4 °F /  15.2 °C 55.2 °F /  12.9 °C 30.36 in /  1028 hPa Calm   5.0 mph /  8 km/h 86 % 0.00 in /  0 mm
03:45 59.5 °F /  15.3 °C 55.3 °F /  12.9 °C 30.36 in /  1028 hPa Calm   5.0 mph /  8 km/h 86 % 0.00 in /  0 mm
03:50 59.5 °F /  15.3 °C 55.3 °F /  12.9 °C 30.36 in /  1028 hPa Calm   5.0 mph /  8 km/h 86 % 0.00 in /  0 mm
03:55 59.4 °F /  15.2 °C 55.2 °F /  12.9 °C 30.36 in /  1028 hPa ENE 1.0 mph /  1.6 km/h 5.0 mph /  8 km/h 86 % 0.00 in /  0 mm
04:00 59.4 °F /  15.2 °C 55.5 °F /  13.1 °C 30.36 in /  1028 hPa Calm   5.0 mph /  8 km/h 87 % 0.00 in /  0 mm
04:05 59.4 °F /  15.2 °C 55.5 °F /  13.1 °C 30.36 in /  1028 hPa Calm   5.0 mph /  8 km/h 87 % 0.00 in /  0 mm
04:10 59.4 °F /  15.2 °C 55.5 °F /  13.1 °C 30.36 in /  1028 hPa Calm   5.0 mph /  8 km/h 87 % 0.00 in /  0 mm
04:15 59.4 °F /  15.2 °C 55.5 °F /  13.1 °C 30.36 in /  1028 hPa Calm   5.0 mph /  8 km/h 87 % 0.00 in /  0 mm
04:20 59.4 °F /  15.2 °C 55.5 °F /  13.1 °C 30.36 in /  1028 hPa Calm   5.0 mph /  8 km/h 87 % 0.00 in /  0 mm
04:25 59.4 °F /  15.2 °C 55.5 °F /  13.1 °C 30.36 in /  1028 hPa Calm   5.0 mph /  8 km/h 87 % 0.00 in /  0 mm
04:30 59.4 °F /  15.2 °C 55.8 °F /  13.2 °C 30.36 in /  1028 hPa Calm   5.0 mph /  8 km/h 88 % 0.00 in /  0 mm
04:35 59.4 °F /  15.2 °C 55.8 °F /  13.2 °C 30.36 in /  1028 hPa Calm   5.0 mph /  8 km/h 88 % 0.00 in /  0 mm
04:40 59.4 °F /  15.2 °C 55.8 °F /  13.2 °C 30.37 in /  1028.3 hPa Calm   2.0 mph /  3.2 km/h 88 % 0.00 in /  0 mm
04:45 59.4 °F /  15.2 °C 55.8 °F /  13.2 °C 30.37 in /  1028.3 hPa Calm   2.0 mph /  3.2 km/h 88 % 0.00 in /  0 mm
04:50 59.4 °F /  15.2 °C 55.8 °F /  13.2 °C 30.36 in /  1028 hPa Calm   3.0 mph /  4.8 km/h 88 % 0.00 in /  0 mm
04:55 59.4 °F /  15.2 °C 55.8 °F /  13.2 °C 30.36 in /  1028 hPa Calm   3.0 mph /  4.8 km/h 88 % 0.00 in /  0 mm
05:00 59.3 °F /  15.2 °C 55.7 °F /  13.2 °C 30.36 in /  1028 hPa Calm   3.0 mph /  4.8 km/h 88 % 0.00 in /  0 mm
05:05 59.4 °F /  15.2 °C 55.8 °F /  13.2 °C 30.36 in /  1028 hPa Calm   3.0 mph /  4.8 km/h 88 % 0.00 in /  0 mm
05:10 59.4 °F /  15.2 °C 55.8 °F /  13.2 °C 30.36 in /  1028 hPa Calm   6.0 mph /  9.7 km/h 88 % 0.00 in /  0 mm
05:15 59.3 °F /  15.2 °C 55.7 °F /  13.2 °C 30.36 in /  1028 hPa Calm   6.0 mph /  9.7 km/h 88 % 0.00 in /  0 mm
05:20 59.4 °F /  15.2 °C 55.8 °F /  13.2 °C 30.36 in /  1028 hPa Calm   6.0 mph /  9.7 km/h 88 % 0.00 in /  0 mm
05:25 59.4 °F /  15.2 °C 55.8 °F /  13.2 °C 30.36 in /  1028 hPa Calm   6.0 mph /  9.7 km/h 88 % 0.00 in /  0 mm
05:30 59.5 °F /  15.3 °C 55.9 °F /  13.3 °C 30.37 in /  1028.3 hPa ESE 2.0 mph /  3.2 km/h 6.0 mph /  9.7 km/h 88 % 0.00 in /  0 mm
05:35 59.5 °F /  15.3 °C 55.9 °F /  13.3 °C 30.37 in /  1028.3 hPa Calm   6.0 mph /  9.7 km/h 88 % 0.00 in /  0 mm
05:40 59.5 °F /  15.3 °C 55.9 °F /  13.3 °C 30.37 in /  1028.3 hPa Calm   6.0 mph /  9.7 km/h 88 % 0.00 in /  0 mm
05:45 59.6 °F /  15.3 °C 56.0 °F /  13.3 °C 30.37 in /  1028.3 hPa East 1.0 mph /  1.6 km/h 6.0 mph /  9.7 km/h 88 % 0.00 in /  0 mm
05:50 59.6 °F /  15.3 °C 56.0 °F /  13.3 °C 30.37 in /  1028.3 hPa Calm   6.0 mph /  9.7 km/h 88 % 0.00 in /  0 mm
05:55 59.6 °F /  15.3 °C 56.0 °F /  13.3 °C 30.37 in /  1028.3 hPa Calm   3.0 mph /  4.8 km/h 88 % 0.00 in /  0 mm
06:00 59.6 °F /  15.3 °C 56.0 °F /  13.3 °C 30.37 in /  1028.3 hPa Calm   3.0 mph /  4.8 km/h 88 % 0.00 in /  0 mm
06:05 59.6 °F /  15.3 °C 56.0 °F /  13.3 °C 30.37 in /  1028.3 hPa Calm   3.0 mph /  4.8 km/h 88 % 0.00 in /  0 mm
06:10 59.6 °F /  15.3 °C 56.0 °F /  13.3 °C 30.37 in /  1028.3 hPa Calm   3.0 mph /  4.8 km/h 88 % 0.00 in /  0 mm
06:15 59.7 °F /  15.4 °C 56.1 °F /  13.4 °C 30.37 in /  1028.3 hPa Calm   6.0 mph /  9.7 km/h 88 % 0.00 in /  0 mm
06:20 59.6 °F /  15.3 °C 56.0 °F /  13.3 °C 30.37 in /  1028.3 hPa Calm   6.0 mph /  9.7 km/h 88 % 0.00 in /  0 mm
06:25 59.6 °F /  15.3 °C 56.0 °F /  13.3 °C 30.37 in /  1028.3 hPa East 3.0 mph /  4.8 km/h 6.0 mph /  9.7 km/h 88 % 0.00 in /  0 mm
06:30 59.6 °F /  15.3 °C 56.0 °F /  13.3 °C 30.38 in /  1028.7 hPa ENE 1.0 mph /  1.6 km/h 11.0 mph /  17.7 km/h 88 % 0.00 in /  0 mm
06:35 59.6 °F /  15.3 °C 56.0 °F /  13.3 °C 30.38 in /  1028.7 hPa SSW 1.0 mph /  1.6 km/h 11.0 mph /  17.7 km/h 88 % 0.00 in /  0 mm
06:40 59.6 °F /  15.3 °C 56.0 °F /  13.3 °C 30.38 in /  1028.7 hPa Calm   11.0 mph /  17.7 km/h 88 % 0.00 in /  0 mm
06:45 59.6 °F /  15.3 °C 56.0 °F /  13.3 °C 30.38 in /  1028.7 hPa Calm   11.0 mph /  17.7 km/h 88 % 0.00 in /  0 mm
06:50 59.5 °F /  15.3 °C 55.9 °F /  13.3 °C 30.38 in /  1028.7 hPa East 3.0 mph /  4.8 km/h 9.0 mph /  14.5 km/h 88 % 0.00 in /  0 mm
06:55 59.5 °F /  15.3 °C 55.9 °F /  13.3 °C 30.38 in /  1028.7 hPa Calm   5.0 mph /  8 km/h 88 % 0.00 in /  0 mm
07:00 59.5 °F /  15.3 °C 55.9 °F /  13.3 °C 30.38 in /  1028.7 hPa Calm   5.0 mph /  8 km/h 88 % 0.00 in /  0 mm
07:05 59.5 °F /  15.3 °C 55.9 °F /  13.3 °C 30.38 in /  1028.7 hPa Calm   5.0 mph /  8 km/h 88 % 0.00 in /  0 mm
07:10 59.5 °F /  15.3 °C 55.9 °F /  13.3 °C 30.38 in /  1028.7 hPa Calm   5.0 mph /  8 km/h 88 % 0.00 in /  0 mm
07:15 59.5 °F /  15.3 °C 56.2 °F /  13.4 °C 30.38 in /  1028.7 hPa Calm   5.0 mph /  8 km/h 89 % 0.00 in /  0 mm
07:16 59.5 °F /  15.3 °C 56.2 °F /  13.4 °C 30.38 in /  1028.7 hPa ESE 2.0 mph /  3.2 km/h 4.0 mph /  6.4 km/h 89 % 0.00 in /  0 mm
07:21 59.5 °F /  15.3 °C 56.2 °F /  13.4 °C 30.38 in /  1028.7 hPa Calm   8.0 mph /  12.9 km/h 89 % 0.00 in /  0 mm
07:26 59.4 °F /  15.2 °C 56.1 °F /  13.4 °C 30.38 in /  1028.7 hPa Calm   8.0 mph /  12.9 km/h 89 % 0.00 in /  0 mm
07:31 59.4 °F /  15.2 °C 56.1 °F /  13.4 °C 30.38 in /  1028.7 hPa Calm   8.0 mph /  12.9 km/h 89 % 0.00 in /  0 mm
07:36 59.4 °F /  15.2 °C 56.1 °F /  13.4 °C 30.38 in /  1028.7 hPa East 1.0 mph /  1.6 km/h 8.0 mph /  12.9 km/h 89 % 0.00 in /  0 mm
07:41 59.4 °F /  15.2 °C 56.1 °F /  13.4 °C 30.38 in /  1028.7 hPa Calm   7.0 mph /  11.3 km/h 89 % 0.00 in /  0 mm
07:46 59.4 °F /  15.2 °C 56.1 °F /  13.4 °C 30.38 in /  1028.7 hPa Calm   7.0 mph /  11.3 km/h 89 % 0.00 in /  0 mm
07:51 59.5 °F /  15.3 °C 56.2 °F /  13.4 °C 30.39 in /  1029 hPa Calm   6.0 mph /  9.7 km/h 89 % 0.00 in /  0 mm
07:56 59.4 °F /  15.2 °C 56.1 °F /  13.4 °C 30.39 in /  1029 hPa Calm   5.0 mph /  8 km/h 89 % 0.00 in /  0 mm
08:01 59.5 °F /  15.3 °C 56.2 °F /  13.4 °C 30.39 in /  1029 hPa Calm   5.0 mph /  8 km/h 89 % 0.00 in /  0 mm
08:06 59.5 °F /  15.3 °C 56.2 °F /  13.4 °C 30.39 in /  1029 hPa Calm   4.0 mph /  6.4 km/h 89 % 0.00 in /  0 mm
08:11 59.5 °F /  15.3 °C 56.2 °F /  13.4 °C 30.39 in /  1029 hPa Calm   4.0 mph /  6.4 km/h 89 % 0.00 in /  0 mm
08:12 59.5 °F /  15.3 °C 56.2 °F /  13.4 °C 30.39 in /  1029 hPa Calm   4.0 mph /  6.4 km/h 89 % 0.00 in /  0 mm
08:17 59.5 °F /  15.3 °C 56.2 °F /  13.4 °C 30.39 in /  1029 hPa Calm   3.0 mph /  4.8 km/h 89 % 0.00 in /  0 mm
08:22 59.6 °F /  15.3 °C 56.3 °F /  13.5 °C 30.40 in /  1029.3 hPa Calm   3.0 mph /  4.8 km/h 89 % 0.00 in /  0 mm
08:27 59.6 °F /  15.3 °C 56.6 °F /  13.7 °C 30.39 in /  1029 hPa Calm   4.0 mph /  6.4 km/h 90 % 0.00 in /  0 mm
08:32 59.6 °F /  15.3 °C 56.6 °F /  13.7 °C 30.40 in /  1029.3 hPa Calm   4.0 mph /  6.4 km/h 90 % 0.00 in /  0 mm
08:37 59.6 °F /  15.3 °C 56.6 °F /  13.7 °C 30.40 in /  1029.3 hPa North 4.0 mph /  6.4 km/h 7.0 mph /  11.3 km/h 90 % 0.00 in /  0 mm
08:42 59.5 °F /  15.3 °C 56.5 °F /  13.6 °C 30.40 in /  1029.3 hPa Calm   9.0 mph /  14.5 km/h 90 % 0.00 in /  0 mm
08:47 59.5 °F /  15.3 °C 56.8 °F /  13.8 °C 30.40 in /  1029.3 hPa Calm   9.0 mph /  14.5 km/h 91 % 0.00 in /  0 mm
08:52 59.5 °F /  15.3 °C 56.8 °F /  13.8 °C 30.40 in /  1029.3 hPa Calm   9.0 mph /  14.5 km/h 91 % 0.00 in /  0 mm
08:57 59.6 °F /  15.3 °C 57.2 °F /  14 °C 30.40 in /  1029.3 hPa Calm   8.0 mph /  12.9 km/h 92 % 0.00 in /  0 mm
09:02 59.6 °F /  15.3 °C 57.2 °F /  14 °C 30.40 in /  1029.3 hPa Calm   3.0 mph /  4.8 km/h 92 % 0.00 in /  0 mm
09:07 59.7 °F /  15.4 °C 57.3 °F /  14.1 °C 30.40 in /  1029.3 hPa Calm   3.0 mph /  4.8 km/h 92 % 0.00 in /  0 mm
09:12 59.7 °F /  15.4 °C 57.3 °F /  14.1 °C 30.40 in /  1029.3 hPa Calm   3.0 mph /  4.8 km/h 92 % 0.00 in /  0 mm
09:17 59.7 °F /  15.4 °C 57.0 °F /  13.9 °C 30.40 in /  1029.3 hPa Calm   3.0 mph /  4.8 km/h 91 % 0.00 in /  0 mm
09:22 59.7 °F /  15.4 °C 57.0 °F /  13.9 °C 30.40 in /  1029.3 hPa Calm   3.0 mph /  4.8 km/h 91 % 0.00 in /  0 mm
09:27 59.9 °F /  15.5 °C 57.2 °F /  14 °C 30.40 in /  1029.3 hPa Calm   3.0 mph /  4.8 km/h 91 % 0.00 in /  0 mm
09:32 60.0 °F /  15.6 °C 57.3 °F /  14.1 °C 30.40 in /  1029.3 hPa Calm   6.0 mph /  9.7 km/h 91 % 0.00 in /  0 mm
09:37 60.1 °F /  15.6 °C 57.4 °F /  14.1 °C 30.40 in /  1029.3 hPa ESE 1.0 mph /  1.6 km/h 7.0 mph /  11.3 km/h 91 % 0.00 in /  0 mm
09:42 60.3 °F /  15.7 °C 57.3 °F /  14.1 °C 30.40 in /  1029.3 hPa ESE 1.0 mph /  1.6 km/h 11.0 mph /  17.7 km/h 90 % 0.00 in /  0 mm
09:47 60.5 °F /  15.8 °C 57.5 °F /  14.2 °C 30.40 in /  1029.3 hPa Calm   11.0 mph /  17.7 km/h 90 % 0.00 in /  0 mm
09:52 60.7 °F /  15.9 °C 57.7 °F /  14.3 °C 30.40 in /  1029.3 hPa Calm   11.0 mph /  17.7 km/h 90 % 0.00 in /  0 mm
09:57 60.9 °F /  16.1 °C 57.6 °F /  14.2 °C 30.40 in /  1029.3 hPa Calm   11.0 mph /  17.7 km/h 89 % 0.00 in /  0 mm
10:02 61.2 °F /  16.2 °C 57.9 °F /  14.4 °C 30.40 in /  1029.3 hPa Calm   6.0 mph /  9.7 km/h 89 % 0.00 in /  0 mm
10:07 61.3 °F /  16.3 °C 57.7 °F /  14.3 °C 30.40 in /  1029.3 hPa ENE 4.0 mph /  6.4 km/h 11.0 mph /  17.7 km/h 88 % 0.00 in /  0 mm
10:12 61.4 °F /  16.3 °C 57.8 °F /  14.3 °C 30.40 in /  1029.3 hPa WNW 2.0 mph /  3.2 km/h 11.0 mph /  17.7 km/h 88 % 0.00 in /  0 mm
10:17 61.4 °F /  16.3 °C 57.5 °F /  14.2 °C 30.40 in /  1029.3 hPa Calm   11.0 mph /  17.7 km/h 87 % 0.00 in /  0 mm
10:22 61.6 °F /  16.4 °C 57.7 °F /  14.3 °C 30.40 in /  1029.3 hPa West 4.0 mph /  6.4 km/h 11.0 mph /  17.7 km/h 87 % 0.00 in /  0 mm
10:27 61.7 °F /  16.5 °C 57.8 °F /  14.3 °C 30.40 in /  1029.3 hPa Calm   10.0 mph /  16.1 km/h 87 % 0.00 in /  0 mm
10:32 61.9 °F /  16.6 °C 58.0 °F /  14.4 °C 30.40 in /  1029.3 hPa ENE 2.0 mph /  3.2 km/h 10.0 mph /  16.1 km/h 87 % 0.00 in /  0 mm
10:37 62.0 °F /  16.7 °C 58.1 °F /  14.5 °C 30.40 in /  1029.3 hPa Calm   10.0 mph /  16.1 km/h 87 % 0.00 in /  0 mm
10:42 62.1 °F /  16.7 °C 58.2 °F /  14.6 °C 30.40 in /  1029.3 hPa ESE 1.0 mph /  1.6 km/h 7.0 mph /  11.3 km/h 87 % 0.00 in /  0 mm
10:47 62.3 °F /  16.8 °C 58.1 °F /  14.5 °C 30.40 in /  1029.3 hPa West 1.0 mph /  1.6 km/h 7.0 mph /  11.3 km/h 86 % 0.00 in /  0 mm
10:52 62.3 °F /  16.8 °C 58.4 °F /  14.7 °C 30.40 in /  1029.3 hPa West 1.0 mph /  1.6 km/h 5.0 mph /  8 km/h 87 % 0.00 in /  0 mm
10:57 62.3 °F /  16.8 °C 58.1 °F /  14.5 °C 30.40 in /  1029.3 hPa Calm   10.0 mph /  16.1 km/h 86 % 0.00 in /  0 mm
11:02 62.3 °F /  16.8 °C 58.1 °F /  14.5 °C 30.40 in /  1029.3 hPa North 1.0 mph /  1.6 km/h 10.0 mph /  16.1 km/h 86 % 0.00 in /  0 mm
11:07 62.3 °F /  16.8 °C 58.1 °F /  14.5 °C 30.40 in /  1029.3 hPa Calm   10.0 mph /  16.1 km/h 86 % 0.00 in /  0 mm
11:12 62.2 °F /  16.8 °C 58.0 °F /  14.4 °C 30.40 in /  1029.3 hPa WNW 5.0 mph /  8 km/h 10.0 mph /  16.1 km/h 86 % 0.00 in /  0 mm
11:17 62.2 °F /  16.8 °C 58.3 °F /  14.6 °C 30.40 in /  1029.3 hPa North 2.0 mph /  3.2 km/h 9.0 mph /  14.5 km/h 87 % 0.00 in /  0 mm
11:22 62.2 °F /  16.8 °C 58.3 °F /  14.6 °C 30.39 in /  1029 hPa East 2.0 mph /  3.2 km/h 5.0 mph /  8 km/h 87 % 0.00 in /  0 mm
11:27 62.3 °F /  16.8 °C 58.1 °F /  14.5 °C 30.39 in /  1029 hPa Calm   8.0 mph /  12.9 km/h 86 % 0.00 in /  0 mm
11:32 62.3 °F /  16.8 °C 58.4 °F /  14.7 °C 30.39 in /  1029 hPa Calm   8.0 mph /  12.9 km/h 87 % 0.00 in /  0 mm
11:37 62.3 °F /  16.8 °C 58.4 °F /  14.7 °C 30.39 in /  1029 hPa Calm   10.0 mph /  16.1 km/h 87 % 0.00 in /  0 mm
11:42 62.4 °F /  16.9 °C 58.5 °F /  14.7 °C 30.39 in /  1029 hPa Calm   10.0 mph /  16.1 km/h 87 % 0.00 in /  0 mm
11:47 62.5 °F /  16.9 °C 58.6 °F /  14.8 °C 30.39 in /  1029 hPa ESE 1.0 mph /  1.6 km/h 10.0 mph /  16.1 km/h 87 % 0.00 in /  0 mm
11:52 62.6 °F /  17 °C 58.7 °F /  14.8 °C 30.39 in /  1029 hPa ENE 1.0 mph /  1.6 km/h 10.0 mph /  16.1 km/h 87 % 0.00 in /  0 mm
11:57 62.5 °F /  16.9 °C 58.3 °F /  14.6 °C 30.39 in /  1029 hPa East 2.0 mph /  3.2 km/h 5.0 mph /  8 km/h 86 % 0.00 in /  0 mm
12:02 62.5 °F /  16.9 °C 58.6 °F /  14.8 °C 30.39 in /  1029 hPa Calm   5.0 mph /  8 km/h 87 % 0.00 in /  0 mm
12:07 62.5 °F /  16.9 °C 58.6 °F /  14.8 °C 30.39 in /  1029 hPa Calm   5.0 mph /  8 km/h 87 % 0.00 in /  0 mm
12:12 62.5 °F /  16.9 °C 58.6 °F /  14.8 °C 30.39 in /  1029 hPa Calm   5.0 mph /  8 km/h 87 % 0.00 in /  0 mm
12:17 62.5 °F /  16.9 °C 58.6 °F /  14.8 °C 30.39 in /  1029 hPa ESE 1.0 mph /  1.6 km/h 4.0 mph /  6.4 km/h 87 % 0.00 in /  0 mm
12:22 62.5 °F /  16.9 °C 58.6 °F /  14.8 °C 30.39 in /  1029 hPa Calm   4.0 mph /  6.4 km/h 87 % 0.00 in /  0 mm
12:23 62.6 °F /  17 °C 59.0 °F /  15 °C 30.39 in /  1029 hPa Calm   4.0 mph /  6.4 km/h 88 % 0.00 in /  0 mm
12:28 62.5 °F /  16.9 °C 58.6 °F /  14.8 °C 30.38 in /  1028.7 hPa Calm   4.0 mph /  6.4 km/h 87 % 0.00 in /  0 mm
12:33 62.5 °F /  16.9 °C 58.9 °F /  14.9 °C 30.38 in /  1028.7 hPa Calm   7.0 mph /  11.3 km/h 88 % 0.00 in /  0 mm
12:38 62.5 °F /  16.9 °C 58.9 °F /  14.9 °C 30.38 in /  1028.7 hPa Calm   7.0 mph /  11.3 km/h 88 % 0.00 in /  0 mm
12:43 62.6 °F /  17 °C 59.0 °F /  15 °C 30.38 in /  1028.7 hPa East 1.0 mph /  1.6 km/h 7.0 mph /  11.3 km/h 88 % 0.00 in /  0 mm
12:48 62.6 °F /  17 °C 58.7 °F /  14.8 °C 30.37 in /  1028.3 hPa Calm   6.0 mph /  9.7 km/h 87 % 0.00 in /  0 mm
12:53 62.7 °F /  17.1 °C 58.8 °F /  14.9 °C 30.37 in /  1028.3 hPa Calm   6.0 mph /  9.7 km/h 87 % 0.00 in /  0 mm
12:58 62.7 °F /  17.1 °C 58.8 °F /  14.9 °C 30.37 in /  1028.3 hPa Calm   6.0 mph /  9.7 km/h 87 % 0.00 in /  0 mm
13:03 62.9 °F /  17.2 °C 59.3 °F /  15.2 °C 30.37 in /  1028.3 hPa Calm   5.0 mph /  8 km/h 88 % 0.00 in /  0 mm
13:08 62.9 °F /  17.2 °C 59.3 °F /  15.2 °C 30.36 in /  1028 hPa ENE 1.0 mph /  1.6 km/h 5.0 mph /  8 km/h 88 % 0.00 in /  0 mm
13:13 63.0 °F /  17.2 °C 59.1 °F /  15.1 °C 30.36 in /  1028 hPa Calm   5.0 mph /  8 km/h 87 % 0.00 in /  0 mm
13:18 63.2 °F /  17.3 °C 59.6 °F /  15.3 °C 30.36 in /  1028 hPa Calm   5.0 mph /  8 km/h 88 % 0.00 in /  0 mm
13:23 63.3 °F /  17.4 °C 59.7 °F /  15.4 °C 30.36 in /  1028 hPa Calm   5.0 mph /  8 km/h 88 % 0.00 in /  0 mm
13:28 63.4 °F /  17.4 °C 59.8 °F /  15.4 °C 30.36 in /  1028 hPa Calm   5.0 mph /  8 km/h 88 % 0.00 in /  0 mm
13:33 63.4 °F /  17.4 °C 59.5 °F /  15.3 °C 30.35 in /  1027.7 hPa Calm   4.0 mph /  6.4 km/h 87 % 0.00 in /  0 mm
13:38 63.5 °F /  17.5 °C 59.6 °F /  15.3 °C 30.35 in /  1027.7 hPa East 1.0 mph /  1.6 km/h 5.0 mph /  8 km/h 87 % 0.00 in /  0 mm
13:43 63.6 °F /  17.6 °C 59.7 °F /  15.4 °C 30.35 in /  1027.7 hPa Calm   5.0 mph /  8 km/h 87 % 0.00 in /  0 mm
13:48 63.7 °F /  17.6 °C 59.8 °F /  15.4 °C 30.35 in /  1027.7 hPa ENE 1.0 mph /  1.6 km/h 5.0 mph /  8 km/h 87 % 0.00 in /  0 mm
13:53 63.6 °F /  17.6 °C 59.7 °F /  15.4 °C 30.35 in /  1027.7 hPa WNW 1.0 mph /  1.6 km/h 4.0 mph /  6.4 km/h 87 % 0.00 in /  0 mm
13:58 63.7 °F /  17.6 °C 59.8 °F /  15.4 °C 30.35 in /  1027.7 hPa Calm   4.0 mph /  6.4 km/h 87 % 0.00 in /  0 mm
14:03 63.8 °F /  17.7 °C 59.9 °F /  15.5 °C 30.35 in /  1027.7 hPa Calm   4.0 mph /  6.4 km/h 87 % 0.00 in /  0 mm
14:08 63.9 °F /  17.7 °C 60.0 °F /  15.6 °C 30.35 in /  1027.7 hPa ESE 3.0 mph /  4.8 km/h 4.0 mph /  6.4 km/h 87 % 0.00 in /  0 mm
14:13 63.9 °F /  17.7 °C 59.6 °F /  15.3 °C 30.34 in /  1027.3 hPa Calm   8.0 mph /  12.9 km/h 86 % 0.00 in /  0 mm
14:18 64.0 °F /  17.8 °C 60.0 °F /  15.6 °C 30.34 in /  1027.3 hPa ESE 1.0 mph /  1.6 km/h 8.0 mph /  12.9 km/h 87 % 0.00 in /  0 mm
14:28 64.3 °F /  17.9 °C 60.3 °F /  15.7 °C 30.34 in /  1027.3 hPa Calm   8.0 mph /  12.9 km/h 87 % 0.00 in /  0 mm
14:33 64.3 °F /  17.9 °C 60.0 °F /  15.6 °C 30.34 in /  1027.3 hPa Calm   6.0 mph /  9.7 km/h 86 % 0.00 in /  0 mm
14:38 64.2 °F /  17.9 °C 59.9 °F /  15.5 °C 30.33 in /  1027 hPa Calm   4.0 mph /  6.4 km/h 86 % 0.00 in /  0 mm
14:43 64.2 °F /  17.9 °C 59.9 °F /  15.5 °C 30.34 in /  1027.3 hPa Calm   3.0 mph /  4.8 km/h 86 % 0.00 in /  0 mm
14:48 64.2 °F /  17.9 °C 59.9 °F /  15.5 °C 30.33 in /  1027 hPa Calm   3.0 mph /  4.8 km/h 86 % 0.00 in /  0 mm
14:53 64.2 °F /  17.9 °C 60.2 °F /  15.7 °C 30.33 in /  1027 hPa Calm   2.0 mph /  3.2 km/h 87 % 0.00 in /  0 mm
14:58 64.2 °F /  17.9 °C 59.9 °F /  15.5 °C 30.33 in /  1027 hPa Calm   2.0 mph /  3.2 km/h 86 % 0.00 in /  0 mm
15:03 64.3 °F /  17.9 °C 60.3 °F /  15.7 °C 30.33 in /  1027 hPa NE 1.0 mph /  1.6 km/h 2.0 mph /  3.2 km/h 87 % 0.00 in /  0 mm
15:08 64.3 °F /  17.9 °C 60.3 °F /  15.7 °C 30.33 in /  1027 hPa Calm   3.0 mph /  4.8 km/h 87 % 0.00 in /  0 mm
15:13 64.4 °F /  18 °C 60.4 °F /  15.8 °C 30.33 in /  1027 hPa Calm   3.0 mph /  4.8 km/h 87 % 0.00 in /  0 mm
15:18 64.4 °F /  18 °C 60.4 °F /  15.8 °C 30.33 in /  1027 hPa Calm   3.0 mph /  4.8 km/h 87 % 0.00 in /  0 mm
15:23 64.4 °F /  18 °C 60.1 °F /  15.6 °C 30.33 in /  1027 hPa Calm   3.0 mph /  4.8 km/h 86 % 0.00 in /  0 mm
15:28 64.4 °F /  18 °C 60.4 °F /  15.8 °C 30.33 in /  1027 hPa ENE 2.0 mph /  3.2 km/h 3.0 mph /  4.8 km/h 87 % 0.00 in /  0 mm
15:33 64.4 °F /  18 °C 60.1 °F /  15.6 °C 30.33 in /  1027 hPa Calm   3.0 mph /  4.8 km/h 86 % 0.00 in /  0 mm
15:38 64.3 °F /  17.9 °C 60.3 °F /  15.7 °C 30.33 in /  1027 hPa WNW 1.0 mph /  1.6 km/h 3.0 mph /  4.8 km/h 87 % 0.00 in /  0 mm
15:43 64.3 °F /  17.9 °C 60.3 °F /  15.7 °C 30.33 in /  1027 hPa Calm   3.0 mph /  4.8 km/h 87 % 0.00 in /  0 mm
15:48 64.3 °F /  17.9 °C 60.3 °F /  15.7 °C 30.33 in /  1027 hPa Calm   3.0 mph /  4.8 km/h 87 % 0.00 in /  0 mm
15:53 64.2 °F /  17.9 °C 60.2 °F /  15.7 °C 30.33 in /  1027 hPa WNW 2.0 mph /  3.2 km/h 2.0 mph /  3.2 km/h 87 % 0.00 in /  0 mm
15:54 64.2 °F /  17.9 °C 60.2 °F /  15.7 °C 30.33 in /  1027 hPa Calm   2.0 mph /  3.2 km/h 87 % 0.00 in /  0 mm
15:59 64.1 °F /  17.8 °C 60.1 °F /  15.6 °C 30.33 in /  1027 hPa Calm   2.0 mph /  3.2 km/h 87 % 0.00 in /  0 mm
16:04 64.1 °F /  17.8 °C 60.1 °F /  15.6 °C 30.32 in /  1026.6 hPa Calm   3.0 mph /  4.8 km/h 87 % 0.00 in /  0 mm
16:09 64.1 °F /  17.8 °C 60.1 °F /  15.6 °C 30.32 in /  1026.6 hPa WNW 1.0 mph /  1.6 km/h 3.0 mph /  4.8 km/h 87 % 0.00 in /  0 mm
16:14 64.0 °F /  17.8 °C 60.0 °F /  15.6 °C 30.32 in /  1026.6 hPa Calm   5.0 mph /  8 km/h 87 % 0.00 in /  0 mm
16:19 64.0 °F /  17.8 °C 60.0 °F /  15.6 °C 30.32 in /  1026.6 hPa Calm   5.0 mph /  8 km/h 87 % 0.00 in /  0 mm
16:24 63.9 °F /  17.7 °C 60.3 °F /  15.7 °C 30.32 in /  1026.6 hPa Calm   4.0 mph /  6.4 km/h 88 % 0.00 in /  0 mm
16:29 63.8 °F /  17.7 °C 60.2 °F /  15.7 °C 30.32 in /  1026.6 hPa Calm   5.0 mph /  8 km/h 88 % 0.00 in /  0 mm
16:34 63.7 °F /  17.6 °C 60.1 °F /  15.6 °C 30.32 in /  1026.6 hPa Calm   6.0 mph /  9.7 km/h 88 % 0.00 in /  0 mm
16:39 63.6 °F /  17.6 °C 60.0 °F /  15.6 °C 30.32 in /  1026.6 hPa Calm   6.0 mph /  9.7 km/h 88 % 0.00 in /  0 mm
16:44 63.5 °F /  17.5 °C 59.9 °F /  15.5 °C 30.32 in /  1026.6 hPa Calm   6.0 mph /  9.7 km/h 88 % 0.00 in /  0 mm
16:49 63.4 °F /  17.4 °C 60.1 °F /  15.6 °C 30.32 in /  1026.6 hPa Calm   4.0 mph /  6.4 km/h 89 % 0.00 in /  0 mm
16:54 63.4 °F /  17.4 °C 60.1 °F /  15.6 °C 30.32 in /  1026.6 hPa Calm   4.0 mph /  6.4 km/h 89 % 0.00 in /  0 mm
16:59 63.3 °F /  17.4 °C 60.0 °F /  15.6 °C 30.32 in /  1026.6 hPa Calm   4.0 mph /  6.4 km/h 89 % 0.00 in /  0 mm
17:04 63.3 °F /  17.4 °C 60.3 °F /  15.7 °C 30.32 in /  1026.6 hPa NW 2.0 mph /  3.2 km/h 4.0 mph /  6.4 km/h 90 % 0.00 in /  0 mm
17:09 63.1 °F /  17.3 °C 59.8 °F /  15.4 °C 30.32 in /  1026.6 hPa Calm   3.0 mph /  4.8 km/h 89 % 0.00 in /  0 mm
17:14 63.0 °F /  17.2 °C 60.0 °F /  15.6 °C 30.32 in /  1026.6 hPa Calm   3.0 mph /  4.8 km/h 90 % 0.00 in /  0 mm
17:19 63.0 °F /  17.2 °C 60.0 °F /  15.6 °C 30.32 in /  1026.6 hPa Calm   3.0 mph /  4.8 km/h 90 % 0.00 in /  0 mm
17:24 62.9 °F /  17.2 °C 60.2 °F /  15.7 °C 30.32 in /  1026.6 hPa Calm   3.0 mph /  4.8 km/h 91 % 0.00 in /  0 mm
17:29 62.8 °F /  17.1 °C 60.1 °F /  15.6 °C 30.32 in /  1026.6 hPa ENE 1.0 mph /  1.6 km/h 3.0 mph /  4.8 km/h 91 % 0.00 in /  0 mm
17:34 62.7 °F /  17.1 °C 60.0 °F /  15.6 °C 30.32 in /  1026.6 hPa WNW 1.0 mph /  1.6 km/h 3.0 mph /  4.8 km/h 91 % 0.00 in /  0 mm
17:39 62.5 °F /  16.9 °C 60.1 °F /  15.6 °C 30.31 in /  1026.3 hPa Calm   3.0 mph /  4.8 km/h 92 % 0.00 in /  0 mm
17:44 62.4 °F /  16.9 °C 60.3 °F /  15.7 °C 30.31 in /  1026.3 hPa Calm   3.0 mph /  4.8 km/h 93 % 0.00 in /  0 mm
17:49 62.3 °F /  16.8 °C 60.2 °F /  15.7 °C 30.31 in /  1026.3 hPa Calm   3.0 mph /  4.8 km/h 93 % 0.00 in /  0 mm
17:54 62.1 °F /  16.7 °C 60.0 °F /  15.6 °C 30.32 in /  1026.6 hPa Calm   3.0 mph /  4.8 km/h 93 % 0.00 in /  0 mm
17:59 62.0 °F /  16.7 °C 60.2 °F /  15.7 °C 30.32 in /  1026.6 hPa Calm   3.0 mph /  4.8 km/h 94 % 0.00 in /  0 mm
18:04 61.9 °F /  16.6 °C 60.1 °F /  15.6 °C 30.32 in /  1026.6 hPa Calm   3.0 mph /  4.8 km/h 94 % 0.00 in /  0 mm
18:06 61.9 °F /  16.6 °C 60.1 °F /  15.6 °C 30.32 in /  1026.6 hPa Calm   3.0 mph /  4.8 km/h 94 % 0.00 in /  0 mm
18:11 61.8 °F /  16.6 °C 60.0 °F /  15.6 °C 30.32 in /  1026.6 hPa Calm   2.0 mph /  3.2 km/h 94 % 0.01 in /  0.25 mm
18:16 61.8 °F /  16.6 °C 60.0 °F /  15.6 °C 30.32 in /  1026.6 hPa Calm   2.0 mph /  3.2 km/h 94 % 0.01 in /  0.25 mm
18:21 61.7 °F /  16.5 °C 60.2 °F /  15.7 °C 30.32 in /  1026.6 hPa Calm   2.0 mph /  3.2 km/h 95 % 0.01 in /  0.25 mm
18:26 61.6 °F /  16.4 °C 60.1 °F /  15.6 °C 30.32 in /  1026.6 hPa North 2.0 mph /  3.2 km/h 4.0 mph /  6.4 km/h 95 % 0.02 in /  0.51 mm
18:31 61.5 °F /  16.4 °C 60.0 °F /  15.6 °C 30.32 in /  1026.6 hPa Calm   4.0 mph /  6.4 km/h 95 % 0.02 in /  0.51 mm
18:36 61.4 °F /  16.3 °C 59.9 °F /  15.5 °C 30.32 in /  1026.6 hPa Calm   4.0 mph /  6.4 km/h 95 % 0.02 in /  0.51 mm
18:41 61.4 °F /  16.3 °C 59.9 °F /  15.5 °C 30.32 in /  1026.6 hPa Calm   4.0 mph /  6.4 km/h 95 % 0.02 in /  0.51 mm
18:46 61.3 °F /  16.3 °C 60.1 °F /  15.6 °C 30.32 in /  1026.6 hPa North 2.0 mph /  3.2 km/h 4.0 mph /  6.4 km/h 96 % 0.02 in /  0.51 mm
18:51 61.2 °F /  16.2 °C 60.0 °F /  15.6 °C 30.32 in /  1026.6 hPa Calm   3.0 mph /  4.8 km/h 96 % 0.03 in /  0.76 mm
18:56 61.2 °F /  16.2 °C 60.0 °F /  15.6 °C 30.32 in /  1026.6 hPa Calm   3.0 mph /  4.8 km/h 96 % 0.03 in /  0.76 mm
19:01 61.1 °F /  16.2 °C 59.9 °F /  15.5 °C 30.32 in /  1026.6 hPa Calm   3.0 mph /  4.8 km/h 96 % 0.03 in /  0.76 mm
19:06 61.1 °F /  16.2 °C 59.9 °F /  15.5 °C 30.32 in /  1026.6 hPa Calm   3.0 mph /  4.8 km/h 96 % 0.02 in /  0.51 mm
19:11 61.1 °F /  16.2 °C 59.9 °F /  15.5 °C 30.32 in /  1026.6 hPa Calm   3.0 mph /  4.8 km/h 96 % 0.02 in /  0.51 mm
19:16 61.1 °F /  16.2 °C 59.9 °F /  15.5 °C 30.32 in /  1026.6 hPa Calm   3.0 mph /  4.8 km/h 96 % 0.02 in /  0.51 mm
19:21 61.1 °F /  16.2 °C 59.9 °F /  15.5 °C 30.32 in /  1026.6 hPa North 1.0 mph /  1.6 km/h 2.0 mph /  3.2 km/h 96 % 0.02 in /  0.51 mm
19:26 61.0 °F /  16.1 °C 59.8 °F /  15.4 °C 30.33 in /  1027 hPa Calm   2.0 mph /  3.2 km/h 96 % 0.01 in /  0.25 mm
19:31 61.1 °F /  16.2 °C 59.9 °F /  15.5 °C 30.33 in /  1027 hPa Calm   2.0 mph /  3.2 km/h 96 % 0.02 in /  0.51 mm
19:36 61.1 °F /  16.2 °C 60.2 °F /  15.7 °C 30.33 in /  1027 hPa Calm   2.0 mph /  3.2 km/h 97 % 0.02 in /  0.51 mm
19:37 61.1 °F /  16.2 °C 60.2 °F /  15.7 °C 30.33 in /  1027 hPa Calm   2.0 mph /  3.2 km/h 97 % 0.02 in /  0.51 mm
19:42 61.0 °F /  16.1 °C 60.1 °F /  15.6 °C 30.33 in /  1027 hPa Calm   2.0 mph /  3.2 km/h 97 % 0.02 in /  0.51 mm
19:47 61.1 °F /  16.2 °C 60.2 °F /  15.7 °C 30.32 in /  1026.6 hPa Calm   3.0 mph /  4.8 km/h 97 % 0.01 in /  0.25 mm
19:52 61.1 °F /  16.2 °C 60.2 °F /  15.7 °C 30.32 in /  1026.6 hPa North 2.0 mph /  3.2 km/h 3.0 mph /  4.8 km/h 97 % 0.01 in /  0.25 mm
19:57 61.1 °F /  16.2 °C 60.2 °F /  15.7 °C 30.32 in /  1026.6 hPa Calm   3.0 mph /  4.8 km/h 97 % 0.01 in /  0.25 mm
20:02 61.1 °F /  16.2 °C 60.2 °F /  15.7 °C 30.32 in /  1026.6 hPa North 1.0 mph /  1.6 km/h 3.0 mph /  4.8 km/h 97 % 0.01 in /  0.25 mm
20:07 61.0 °F /  16.1 °C 60.1 °F /  15.6 °C 30.32 in /  1026.6 hPa Calm   3.0 mph /  4.8 km/h 97 % 0.01 in /  0.25 mm
20:08 61.0 °F /  16.1 °C 60.1 °F /  15.6 °C 30.32 in /  1026.6 hPa North 2.0 mph /  3.2 km/h 3.0 mph /  4.8 km/h 97 % 0.01 in /  0.25 mm
20:13 61.0 °F /  16.1 °C 60.1 °F /  15.6 °C 30.32 in /  1026.6 hPa Calm   3.0 mph /  4.8 km/h 97 % 0.02 in /  0.51 mm
20:18 60.9 °F /  16.1 °C 60.0 °F /  15.6 °C 30.32 in /  1026.6 hPa Calm   3.0 mph /  4.8 km/h 97 % 0.02 in /  0.51 mm
20:23 60.9 °F /  16.1 °C 60.0 °F /  15.6 °C 30.32 in /  1026.6 hPa Calm   3.0 mph /  4.8 km/h 97 % 0.02 in /  0.51 mm
20:28 60.9 °F /  16.1 °C 60.0 °F /  15.6 °C 30.32 in /  1026.6 hPa Calm   3.0 mph /  4.8 km/h 97 % 0.02 in /  0.51 mm
20:33 61.0 °F /  16.1 °C 60.1 °F /  15.6 °C 30.32 in /  1026.6 hPa Calm   3.0 mph /  4.8 km/h 97 % 0.02 in /  0.51 mm
20:38 60.9 °F /  16.1 °C 60.0 °F /  15.6 °C 30.32 in /  1026.6 hPa Calm   3.0 mph /  4.8 km/h 97 % 0.02 in /  0.51 mm
20:43 60.9 °F /  16.1 °C 60.0 °F /  15.6 °C 30.32 in /  1026.6 hPa North 2.0 mph /  3.2 km/h 3.0 mph /  4.8 km/h 97 % 0.02 in /  0.51 mm
20:48 60.9 °F /  16.1 °C 60.0 °F /  15.6 °C 30.32 in /  1026.6 hPa Calm   3.0 mph /  4.8 km/h 97 % 0.02 in /  0.51 mm
20:53 61.0 °F /  16.1 °C 60.1 °F /  15.6 °C 30.32 in /  1026.6 hPa Calm   3.0 mph /  4.8 km/h 97 % 0.02 in /  0.51 mm
20:58 60.9 °F /  16.1 °C 60.0 °F /  15.6 °C 30.32 in /  1026.6 hPa Calm   3.0 mph /  4.8 km/h 97 % 0.02 in /  0.51 mm
21:03 60.9 °F /  16.1 °C 60.3 °F /  15.7 °C 30.32 in /  1026.6 hPa Calm   3.0 mph /  4.8 km/h 98 % 0.02 in /  0.51 mm
21:08 60.9 °F /  16.1 °C 60.3 °F /  15.7 °C 30.31 in /  1026.3 hPa Calm   2.0 mph /  3.2 km/h 98 % 0.03 in /  0.76 mm
21:13 60.9 °F /  16.1 °C 60.3 °F /  15.7 °C 30.31 in /  1026.3 hPa Calm   2.0 mph /  3.2 km/h 98 % 0.02 in /  0.51 mm
21:18 60.9 °F /  16.1 °C 60.3 °F /  15.7 °C 30.32 in /  1026.6 hPa Calm   2.0 mph /  3.2 km/h 98 % 0.02 in /  0.51 mm
21:23 60.9 °F /  16.1 °C 60.3 °F /  15.7 °C 30.32 in /  1026.6 hPa Calm   2.0 mph /  3.2 km/h 98 % 0.02 in /  0.51 mm
21:28 61.0 °F /  16.1 °C 60.4 °F /  15.8 °C 30.32 in /  1026.6 hPa North 1.0 mph /  1.6 km/h 2.0 mph /  3.2 km/h 98 % 0.01 in /  0.25 mm
21:33 61.0 °F /  16.1 °C 60.4 °F /  15.8 °C 30.31 in /  1026.3 hPa Calm   3.0 mph /  4.8 km/h 98 % 0.01 in /  0.25 mm
21:38 61.0 °F /  16.1 °C 60.4 °F /  15.8 °C 30.32 in /  1026.6 hPa Calm   3.0 mph /  4.8 km/h 98 % 0.01 in /  0.25 mm
21:43 61.0 °F /  16.1 °C 60.4 °F /  15.8 °C 30.32 in /  1026.6 hPa Calm   3.0 mph /  4.8 km/h 98 % 0.01 in /  0.25 mm
21:48 61.0 °F /  16.1 °C 60.4 °F /  15.8 °C 30.32 in /  1026.6 hPa Calm   4.0 mph /  6.4 km/h 98 % 0.01 in /  0.25 mm
21:53 60.9 °F /  16.1 °C 60.3 °F /  15.7 °C 30.32 in /  1026.6 hPa North 2.0 mph /  3.2 km/h 4.0 mph /  6.4 km/h 98 % 0.01 in /  0.25 mm
21:58 60.9 °F /  16.1 °C 60.3 °F /  15.7 °C 30.32 in /  1026.6 hPa Calm   4.0 mph /  6.4 km/h 98 % 0.01 in /  0.25 mm
22:03 60.9 °F /  16.1 °C 60.3 °F /  15.7 °C 30.32 in /  1026.6 hPa Calm   4.0 mph /  6.4 km/h 98 % 0.01 in /  0.25 mm
22:08 61.0 °F /  16.1 °C 60.4 °F /  15.8 °C 30.32 in /  1026.6 hPa Calm   4.0 mph /  6.4 km/h 98 % 0.00 in /  0 mm
22:13 61.0 °F /  16.1 °C 60.4 °F /  15.8 °C 30.32 in /  1026.6 hPa Calm   3.0 mph /  4.8 km/h 98 % 0.00 in /  0 mm
22:18 61.0 °F /  16.1 °C 60.4 °F /  15.8 °C 30.32 in /  1026.6 hPa North 3.0 mph /  4.8 km/h 3.0 mph /  4.8 km/h 98 % 0.00 in /  0 mm
22:23 61.0 °F /  16.1 °C 60.4 °F /  15.8 °C 30.32 in /  1026.6 hPa Calm   4.0 mph /  6.4 km/h 98 % 0.01 in /  0.25 mm
22:28 61.0 °F /  16.1 °C 60.4 °F /  15.8 °C 30.32 in /  1026.6 hPa Calm   4.0 mph /  6.4 km/h 98 % 0.01 in /  0.25 mm
22:33 61.1 °F /  16.2 °C 60.5 °F /  15.8 °C 30.32 in /  1026.6 hPa Calm   4.0 mph /  6.4 km/h 98 % 0.01 in /  0.25 mm
22:38 61.1 °F /  16.2 °C 60.5 °F /  15.8 °C 30.32 in /  1026.6 hPa Calm   3.0 mph /  4.8 km/h 98 % 0.01 in /  0.25 mm
22:43 61.1 °F /  16.2 °C 60.5 °F /  15.8 °C 30.32 in /  1026.6 hPa Calm   2.0 mph /  3.2 km/h 98 % 0.01 in /  0.25 mm
22:48 61.1 °F /  16.2 °C 60.5 °F /  15.8 °C 30.32 in /  1026.6 hPa Calm   2.0 mph /  3.2 km/h 98 % 0.01 in /  0.25 mm
22:53 61.1 °F /  16.2 °C 60.5 °F /  15.8 °C 30.32 in /  1026.6 hPa Calm   2.0 mph /  3.2 km/h 98 % 0.01 in /  0.25 mm
22:58 61.1 °F /  16.2 °C 60.5 °F /  15.8 °C 30.31 in /  1026.3 hPa Calm   2.0 mph /  3.2 km/h 98 % 0.01 in /  0.25 mm
23:03 61.1 °F /  16.2 °C 60.5 °F /  15.8 °C 30.31 in /  1026.3 hPa Calm   3.0 mph /  4.8 km/h 98 % 0.01 in /  0.25 mm
23:08 61.2 °F /  16.2 °C 60.6 °F /  15.9 °C 30.31 in /  1026.3 hPa Calm   3.0 mph /  4.8 km/h 98 % 0.01 in /  0.25 mm
23:14 61.2 °F /  16.2 °C 60.6 °F /  15.9 °C 30.31 in /  1026.3 hPa Calm   3.0 mph /  4.8 km/h 98 % 0.01 in /  0.25 mm
23:19 61.2 °F /  16.2 °C 60.6 °F /  15.9 °C 30.31 in /  1026.3 hPa Calm   3.0 mph /  4.8 km/h 98 % 0.02 in /  0.51 mm
23:21 61.2 °F /  16.2 °C 60.6 °F /  15.9 °C 30.31 in /  1026.3 hPa Calm   3.0 mph /  4.8 km/h 98 % 0.01 in /  0.25 mm
23:26 61.2 °F /  16.2 °C 60.6 °F /  15.9 °C 30.31 in /  1026.3 hPa Calm   2.0 mph /  3.2 km/h 98 % 0.01 in /  0.25 mm
23:31 61.2 °F /  16.2 °C 60.6 °F /  15.9 °C 30.31 in /  1026.3 hPa Calm   2.0 mph /  3.2 km/h 98 % 0.01 in /  0.25 mm
23:36 61.2 °F /  16.2 °C 60.6 °F /  15.9 °C 30.31 in /  1026.3 hPa Calm   4.0 mph /  6.4 km/h 98 % 0.01 in /  0.25 mm
23:41 61.2 °F /  16.2 °C 60.6 °F /  15.9 °C 30.31 in /  1026.3 hPa North 3.0 mph /  4.8 km/h 4.0 mph /  6.4 km/h 98 % 0.01 in /  0.25 mm
23:46 61.2 °F /  16.2 °C 60.6 °F /  15.9 °C 30.31 in /  1026.3 hPa Calm   4.0 mph /  6.4 km/h 98 % 0.01 in /  0.25 mm
23:51 61.2 °F /  16.2 °C 60.6 °F /  15.9 °C 30.31 in /  1026.3 hPa Calm   3.0 mph /  4.8 km/h 98 % 0.01 in /  0.25 mm
23:56 61.3 °F /  16.3 °C 60.7 °F /  15.9 °C 30.31 in /  1026.3 hPa North 2.0 mph /  3.2 km/h 3.0 mph /  4.8 km/h 98 % 0.01 in /  0.25 mm
MarylandWx.com
Compliments of Weather Underground - 6.5 mb